createdAt,value
2022-09-22T00:01:28.176Z,15.93
2022-09-22T00:03:58.578Z,13.47
2022-09-22T00:06:29.427Z,13.57
2022-09-22T00:09:00.681Z,16.47
2022-09-22T00:11:30.583Z,13.13
2022-09-22T00:14:00.886Z,12.30
2022-09-22T00:16:33.410Z,12.10
2022-09-22T00:19:01.857Z,14.10
2022-09-22T00:21:31.134Z,14.70
2022-09-22T00:24:01.918Z,14.97
2022-09-22T00:26:31.260Z,13.23
2022-09-22T00:29:01.819Z,13.00
2022-09-22T00:31:31.812Z,12.03
2022-09-22T00:34:00.206Z,11.07
2022-09-22T00:36:29.755Z,12.77
2022-09-22T00:38:59.045Z,10.63
2022-09-22T00:41:29.075Z,12.57
2022-09-22T00:44:39.495Z,12.30
2022-09-22T00:47:21.085Z,11.60
2022-09-22T00:49:55.180Z,11.40
2022-09-22T00:52:26.424Z,12.83
2022-09-22T00:54:57.958Z,12.90
2022-09-22T00:57:31.187Z,13.93
2022-09-22T01:00:00.722Z,14.57
2022-09-22T01:02:30.552Z,12.77
2022-09-22T01:04:59.263Z,12.57
2022-09-22T01:07:30.926Z,17.13
2022-09-22T01:09:59.941Z,17.60
2022-09-22T01:12:30.600Z,18.10
2022-09-22T01:15:21.124Z,12.50
2022-09-22T01:18:04.482Z,16.57
2022-09-22T01:20:57.272Z,13.70
2022-09-22T01:23:54.352Z,12.43
2022-09-22T01:26:42.505Z,14.60
2022-09-22T01:29:41.970Z,14.50
2022-09-22T01:32:19.492Z,15.07
2022-09-22T01:34:51.944Z,14.33
2022-09-22T01:37:26.025Z,17.07
2022-09-22T01:40:02.980Z,20.17
2022-09-22T01:42:38.381Z,13.83
2022-09-22T01:45:10.513Z,18.33
2022-09-22T01:47:47.439Z,17.37
2022-09-22T01:50:20.366Z,15.87
2022-09-22T01:52:49.344Z,15.50
2022-09-22T01:55:24.805Z,15.53
2022-09-22T01:57:57.848Z,17.97
2022-09-22T02:00:26.513Z,15.37
2022-09-22T02:03:02.019Z,19.20
2022-09-22T02:05:36.886Z,17.57
2022-09-22T02:08:11.167Z,14.90
2022-09-22T02:10:44.360Z,15.80
2022-09-22T02:13:12.772Z,15.37
2022-09-22T02:15:58.689Z,14.90
2022-09-22T02:18:31.561Z,19.50
2022-09-22T02:21:01.252Z,17.33
2022-09-22T02:23:32.155Z,15.00
2022-09-22T02:26:02.966Z,17.53
2022-09-22T02:28:33.006Z,19.13
2022-09-22T02:31:20.327Z,17.83
2022-09-22T02:33:51.792Z,16.27
2022-09-22T02:36:38.432Z,16.97
2022-09-22T02:39:09.975Z,20.33
2022-09-22T02:41:57.331Z,15.83
2022-09-22T02:44:30.550Z,18.40
2022-09-22T02:47:03.187Z,22.07
2022-09-22T02:49:32.911Z,20.80
2022-09-22T02:52:01.202Z,20.37
2022-09-22T02:54:29.414Z,17.20
2022-09-22T02:56:57.649Z,18.77
2022-09-22T02:59:25.909Z,21.17
2022-09-22T03:01:55.785Z,20.63
2022-09-22T03:04:24.312Z,21.47
2022-09-22T03:06:54.343Z,25.90
2022-09-22T03:09:22.690Z,19.70
2022-09-22T03:11:50.889Z,19.43
2022-09-22T03:14:19.114Z,19.77
2022-09-22T03:16:47.765Z,25.37
2022-09-22T03:19:16.005Z,19.23
2022-09-22T03:21:44.359Z,24.37
2022-09-22T03:24:13.907Z,19.00
2022-09-22T03:26:42.137Z,24.53
2022-09-22T03:29:10.492Z,21.97
2022-09-22T03:31:38.913Z,22.03
2022-09-22T03:34:07.260Z,24.20
2022-09-22T03:36:35.489Z,20.60
2022-09-22T03:39:04.052Z,24.37
2022-09-22T03:41:33.500Z,23.17
2022-09-22T03:44:01.830Z,24.63
2022-09-22T03:46:30.949Z,20.80
2022-09-22T03:48:59.203Z,22.03
2022-09-22T03:51:27.631Z,27.47
2022-09-22T03:53:56.907Z,25.50
2022-09-22T03:56:25.564Z,21.80
2022-09-22T03:58:55.133Z,22.77
2022-09-22T04:01:23.691Z,21.37
2022-09-22T04:03:53.142Z,22.30
2022-09-22T04:06:21.778Z,24.23
2022-09-22T04:08:50.213Z,23.50
2022-09-22T04:11:18.531Z,25.87
2022-09-22T04:13:47.025Z,24.13
2022-09-22T04:16:16.563Z,21.80
2022-09-22T04:18:45.251Z,24.77
2022-09-22T04:21:13.662Z,26.23
2022-09-22T04:23:42.051Z,24.43
2022-09-22T04:26:10.745Z,21.17
2022-09-22T04:28:39.106Z,23.60
2022-09-22T04:31:07.624Z,21.67
2022-09-22T04:33:38.546Z,26.20
2022-09-22T04:36:07.777Z,27.07
2022-09-22T04:38:35.938Z,31.67
2022-09-22T04:41:04.270Z,28.40
2022-09-22T04:43:32.553Z,30.80
2022-09-22T04:46:00.990Z,30.77
2022-09-22T04:48:29.516Z,38.00
2022-09-22T04:50:59.031Z,42.03
2022-09-22T04:53:27.266Z,44.27
2022-09-22T04:55:56.583Z,42.50
2022-09-22T04:58:24.915Z,43.87
2022-09-22T05:00:55.734Z,43.33
2022-09-22T05:03:24.090Z,39.87
2022-09-22T05:05:52.661Z,40.30
2022-09-22T05:08:22.326Z,36.73
2022-09-22T05:10:50.552Z,36.23
2022-09-22T05:13:19.242Z,43.10
2022-09-22T05:15:47.851Z,41.23
2022-09-22T05:18:16.190Z,38.20
2022-09-22T05:20:45.874Z,36.87
2022-09-22T05:23:14.162Z,35.47
2022-09-22T05:25:44.351Z,36.17
2022-09-22T05:28:13.582Z,39.27
2022-09-22T05:30:41.870Z,35.50
2022-09-22T05:33:10.252Z,39.90
2022-09-22T05:35:38.470Z,36.37
2022-09-22T05:38:06.848Z,36.53
2022-09-22T05:40:35.257Z,35.60
2022-09-22T05:43:04.869Z,31.33
2022-09-22T05:45:33.272Z,33.83
2022-09-22T05:48:01.960Z,30.80
2022-09-22T05:50:30.097Z,34.43
2022-09-22T05:53:06.020Z,37.07
2022-09-22T05:55:34.489Z,38.47
2022-09-22T05:58:05.007Z,36.00
2022-09-22T06:00:33.762Z,44.37
2022-09-22T06:03:02.350Z,36.20
2022-09-22T06:05:30.665Z,45.37
2022-09-22T06:08:03.498Z,42.83
2022-09-22T06:10:32.898Z,46.60
2022-09-22T06:13:01.490Z,36.40
2022-09-22T06:15:33.835Z,38.80
2022-09-22T06:18:02.443Z,37.33
2022-09-22T06:20:30.935Z,43.17
2022-09-22T06:22:59.980Z,43.93
2022-09-22T06:25:29.612Z,40.93
2022-09-22T06:28:02.306Z,47.53
2022-09-22T06:30:32.512Z,47.17
2022-09-22T06:33:01.014Z,41.50
2022-09-22T06:35:32.362Z,39.77
2022-09-22T06:38:01.027Z,58.80
2022-09-22T06:40:32.305Z,57.03
2022-09-22T06:43:02.190Z,46.90
2022-09-22T06:45:33.793Z,42.70
2022-09-22T06:48:07.592Z,33.37
2022-09-22T06:50:38.245Z,31.77
2022-09-22T06:53:08.194Z,37.03
2022-09-22T06:55:37.423Z,34.07
2022-09-22T06:58:05.768Z,31.40
2022-09-22T07:00:35.534Z,32.10
2022-09-22T07:03:07.168Z,31.57
2022-09-22T07:05:37.283Z,29.40
2022-09-22T07:08:06.284Z,34.37
2022-09-22T07:10:37.965Z,30.50
2022-09-22T07:13:07.203Z,29.93
2022-09-22T07:15:37.891Z,36.07
2022-09-22T07:18:06.699Z,26.10
2022-09-22T07:20:35.932Z,31.17
2022-09-22T07:23:04.324Z,28.50
2022-09-22T07:25:35.941Z,30.40
2022-09-22T07:28:05.246Z,30.37
2022-09-22T07:30:38.112Z,29.23
2022-09-22T07:33:07.790Z,31.37
2022-09-22T07:35:37.996Z,27.47
2022-09-22T07:38:06.220Z,29.60
2022-09-22T07:40:34.620Z,29.63
2022-09-22T07:43:02.967Z,28.40
2022-09-22T07:45:31.242Z,36.90
2022-09-22T07:48:16.972Z,36.80
2022-09-22T07:51:00.128Z,32.17
2022-09-22T07:53:28.546Z,30.60
2022-09-22T07:55:57.380Z,30.40
2022-09-22T07:58:25.978Z,31.40
2022-09-22T08:00:54.651Z,24.53
2022-09-22T08:03:23.075Z,27.23
2022-09-22T08:05:54.707Z,26.93
2022-09-22T08:08:23.132Z,25.80
2022-09-22T08:10:51.847Z,30.83
2022-09-22T08:13:21.926Z,26.07
2022-09-22T08:15:56.476Z,27.83
2022-09-22T08:18:26.155Z,28.57
2022-09-22T08:20:55.910Z,24.07
2022-09-22T08:23:24.356Z,30.30
2022-09-22T08:25:53.048Z,30.00
2022-09-22T08:28:21.452Z,31.97
2022-09-22T08:30:49.998Z,33.10
2022-09-22T08:33:18.444Z,32.07
2022-09-22T08:35:56.530Z,32.20
2022-09-22T08:38:25.715Z,33.10
2022-09-22T08:41:08.850Z,30.47
2022-09-22T08:43:44.429Z,33.33
2022-09-22T08:46:12.787Z,34.00
2022-09-22T08:49:02.661Z,32.23
2022-09-22T08:51:52.691Z,31.40
2022-09-22T08:54:23.355Z,33.97
2022-09-22T08:57:01.082Z,27.23
2022-09-22T08:59:34.740Z,25.70
2022-09-22T09:02:22.541Z,33.77
2022-09-22T09:05:05.007Z,31.60
2022-09-22T09:07:45.750Z,27.07
2022-09-22T09:10:29.114Z,30.17
2022-09-22T09:13:19.043Z,27.90
2022-09-22T09:16:02.778Z,35.00
2022-09-22T09:18:34.616Z,32.13
2022-09-22T09:21:07.188Z,21.70
2022-09-22T09:26:32.254Z,25.97
2022-09-22T09:29:04.853Z,25.90
2022-09-22T09:31:39.664Z,26.17
2022-09-22T09:34:13.458Z,24.10
2022-09-22T09:36:44.671Z,23.60
2022-09-22T09:39:15.861Z,22.13
2022-09-22T09:41:46.941Z,27.05
2022-09-22T09:44:20.442Z,24.35
2022-09-22T09:46:58.523Z,26.05
2022-09-22T09:49:26.941Z,25.70
2022-09-22T09:51:58.866Z,25.58
2022-09-22T09:54:29.057Z,21.77
2022-09-22T09:57:09.662Z,22.65
2022-09-22T09:59:56.105Z,18.17
2022-09-22T10:02:28.195Z,17.90
2022-09-22T10:04:59.659Z,20.53
2022-09-22T10:10:31.727Z,19.85
2022-09-22T10:13:21.667Z,17.73
2022-09-22T10:16:04.345Z,16.05
2022-09-22T10:18:37.684Z,22.35
2022-09-22T10:21:08.169Z,18.27
2022-09-22T10:23:36.568Z,19.65
2022-09-22T10:26:34.306Z,18.23
2022-09-22T10:29:16.713Z,15.75
2022-09-22T10:32:02.114Z,19.35
2022-09-22T10:34:33.568Z,16.67
2022-09-22T10:37:03.399Z,14.65
2022-09-22T10:39:37.719Z,16.77
2022-09-22T10:42:16.115Z,16.95
2022-09-22T10:44:48.499Z,16.05
2022-09-22T10:47:51.381Z,17.55
2022-09-22T10:50:51.249Z,16.20
2022-09-22T10:53:45.965Z,17.13
2022-09-22T10:56:27.261Z,15.90
2022-09-22T10:59:19.986Z,13.55
2022-09-22T11:01:55.877Z,17.58
2022-09-22T11:04:45.012Z,15.48
2022-09-22T11:07:55.645Z,13.73
2022-09-22T11:10:51.583Z,18.35
2022-09-22T11:13:37.216Z,16.58
2022-09-22T11:16:27.984Z,17.73
2022-09-22T11:19:27.408Z,13.75
2022-09-22T11:22:12.522Z,9.43
2022-09-22T11:25:01.107Z,11.15
2022-09-22T11:27:41.380Z,16.15
2022-09-22T11:30:20.552Z,17.52
2022-09-22T11:33:05.212Z,16.02
2022-09-22T11:36:11.962Z,14.00
2022-09-22T11:39:08.756Z,10.98
2022-09-22T11:41:42.206Z,11.43
2022-09-22T11:44:29.574Z,11.57
2022-09-22T11:47:17.503Z,9.32
2022-09-22T11:50:02.193Z,9.82
2022-09-22T11:52:43.763Z,6.28
2022-09-22T11:55:26.384Z,9.20
2022-09-22T11:58:00.323Z,6.45
2022-09-22T12:00:35.036Z,12.00
2022-09-22T12:03:08.472Z,7.85
2022-09-22T12:05:42.670Z,10.05
2022-09-22T12:08:14.607Z,11.82
2022-09-22T12:10:44.683Z,8.35
2022-09-22T12:13:15.463Z,7.65
2022-09-22T12:15:52.003Z,8.43
2022-09-22T12:18:25.977Z,12.35
2022-09-22T12:21:03.100Z,6.90
2022-09-22T12:23:39.191Z,8.55
2022-09-22T12:26:10.374Z,10.55
2022-09-22T12:28:44.137Z,9.02
2022-09-22T12:31:15.283Z,12.13
2022-09-22T12:33:49.921Z,8.27
2022-09-22T12:36:28.891Z,13.65
2022-09-22T12:39:09.729Z,8.85
2022-09-22T12:41:48.283Z,12.68
2022-09-22T12:44:22.825Z,10.85
2022-09-22T12:46:52.709Z,10.57
2022-09-22T12:49:23.532Z,11.68
2022-09-22T12:51:53.184Z,8.75
2022-09-22T12:54:40.490Z,7.78
2022-09-22T12:57:45.155Z,6.65
2022-09-22T13:00:23.008Z,7.70
2022-09-22T13:02:51.761Z,8.95
2022-09-22T13:05:46.797Z,7.55
2022-09-22T13:08:23.411Z,8.10
2022-09-22T13:11:00.093Z,6.68
2022-09-22T13:13:42.380Z,9.63
2022-09-22T13:16:35.937Z,11.25
2022-09-22T13:19:09.125Z,7.57
2022-09-22T13:21:41.605Z,7.68
2022-09-22T13:24:26.466Z,8.05
2022-09-22T13:27:05.715Z,4.70
2022-09-22T13:29:34.462Z,7.53
2022-09-22T13:32:18.358Z,10.93
2022-09-22T13:34:47.516Z,8.65
2022-09-22T13:37:19.075Z,6.85
2022-09-22T13:39:51.641Z,4.60
2022-09-22T13:42:23.411Z,7.88
2022-09-22T13:45:01.352Z,11.75
2022-09-22T13:47:30.688Z,7.47
2022-09-22T13:50:05.658Z,4.43
2022-09-22T13:52:36.942Z,4.95
2022-09-22T13:55:11.564Z,4.25
2022-09-22T13:57:41.710Z,10.30
2022-09-22T14:00:27.100Z,8.55
2022-09-22T14:02:57.866Z,3.90
2022-09-22T14:05:28.816Z,5.85
2022-09-22T14:08:12.059Z,8.13
2022-09-22T14:10:44.490Z,7.68
2022-09-22T14:13:40.599Z,11.80
2022-09-22T14:16:12.594Z,5.82
2022-09-22T14:18:44.172Z,4.65
2022-09-22T14:21:13.071Z,8.38
2022-09-22T14:23:46.474Z,8.30
2022-09-22T14:26:33.298Z,7.30
2022-09-22T14:29:15.282Z,7.75
2022-09-22T14:31:46.507Z,9.82
2022-09-22T14:34:22.186Z,5.90
2022-09-22T14:36:52.250Z,7.68
2022-09-22T14:39:29.306Z,5.95
2022-09-22T14:42:08.953Z,7.07
2022-09-22T14:44:43.548Z,6.22
2022-09-22T14:47:25.737Z,6.53
2022-09-22T14:50:13.836Z,6.13
2022-09-22T14:52:47.902Z,6.72
2022-09-22T14:55:29.136Z,6.70
2022-09-22T14:58:02.714Z,7.95
2022-09-22T15:00:48.809Z,7.03
2022-09-22T15:03:21.655Z,9.80
2022-09-22T15:05:51.463Z,6.38
2022-09-22T15:08:27.657Z,10.07
2022-09-22T15:10:57.941Z,7.55
2022-09-22T15:13:38.312Z,8.02
2022-09-22T15:16:07.472Z,8.50
2022-09-22T15:18:36.011Z,8.20
2022-09-22T15:21:11.390Z,9.55
2022-09-22T15:23:42.558Z,9.55
2022-09-22T15:26:17.865Z,8.93
2022-09-22T15:28:49.049Z,7.57
2022-09-22T15:31:26.642Z,8.13
2022-09-22T15:33:55.847Z,7.40
2022-09-22T15:36:25.658Z,3.97
2022-09-22T15:38:59.545Z,6.63
2022-09-22T15:41:28.161Z,4.97
2022-09-22T15:43:58.180Z,6.10
2022-09-22T15:46:33.970Z,6.95
2022-09-22T15:49:05.598Z,7.53
2022-09-22T15:51:34.089Z,7.63
2022-09-22T15:54:02.313Z,9.43
2022-09-22T15:56:32.004Z,6.80
2022-09-22T15:59:02.456Z,7.05
2022-09-22T16:01:30.880Z,5.35
2022-09-22T16:04:00.145Z,6.32
2022-09-22T16:06:29.153Z,5.80
2022-09-22T16:08:58.484Z,4.65
2022-09-22T16:11:29.679Z,6.97
2022-09-22T16:14:00.665Z,5.20
2022-09-22T16:16:30.548Z,6.43
2022-09-22T16:18:59.501Z,7.43
2022-09-22T16:21:29.377Z,8.02
2022-09-22T16:24:03.434Z,7.68
2022-09-22T16:26:33.520Z,6.35
2022-09-22T16:29:02.772Z,6.05
2022-09-22T16:31:32.795Z,8.77
2022-09-22T16:34:03.292Z,5.82
2022-09-22T16:36:34.522Z,6.25
2022-09-22T16:39:03.538Z,11.07
2022-09-22T16:41:33.179Z,7.65
2022-09-22T16:44:02.548Z,6.15
2022-09-22T16:46:34.376Z,14.68
2022-09-22T16:49:05.266Z,4.25
2022-09-22T16:51:35.513Z,5.78
2022-09-22T16:54:05.629Z,5.25
2022-09-22T16:56:35.971Z,6.40
2022-09-22T16:59:04.221Z,6.82
2022-09-22T17:01:36.430Z,10.95
2022-09-22T17:04:06.114Z,7.50
2022-09-22T17:06:36.097Z,12.02
2022-09-22T17:09:04.813Z,9.45
2022-09-22T17:11:36.292Z,9.90
2022-09-22T17:14:12.103Z,7.82
2022-09-22T17:16:43.361Z,8.93
2022-09-22T17:19:13.408Z,10.95
2022-09-22T17:21:41.773Z,10.70
2022-09-22T17:24:10.624Z,9.45
2022-09-22T17:26:41.248Z,7.05
2022-09-22T17:29:10.880Z,12.57
2022-09-22T17:31:41.208Z,9.85
2022-09-22T17:34:12.783Z,10.68
2022-09-22T17:36:41.782Z,11.25
2022-09-22T17:39:10.735Z,9.75
2022-09-22T17:41:45.455Z,11.68
2022-09-22T17:44:14.760Z,14.05
2022-09-22T17:47:05.331Z,13.25
2022-09-22T17:49:52.618Z,11.35
2022-09-22T17:52:38.542Z,14.50
2022-09-22T17:55:11.772Z,16.88
2022-09-22T17:57:42.074Z,11.93
2022-09-22T18:00:13.200Z,14.98
2022-09-22T18:02:41.768Z,13.05
2022-09-22T18:05:13.770Z,13.23
2022-09-22T18:07:43.556Z,20.33
2022-09-22T18:10:14.453Z,14.32
2022-09-22T18:12:43.440Z,18.30
2022-09-22T18:15:13.878Z,16.77
2022-09-22T18:17:43.281Z,17.67
2022-09-22T18:20:15.686Z,14.82
2022-09-22T18:22:48.366Z,13.95
2022-09-22T18:25:19.120Z,13.05
2022-09-22T18:27:48.570Z,16.95
2022-09-22T18:30:19.163Z,14.60
2022-09-22T18:32:47.579Z,16.80
2022-09-22T18:35:17.505Z,16.40
2022-09-22T18:37:46.589Z,14.80
2022-09-22T18:40:16.836Z,16.85
2022-09-22T18:42:45.346Z,13.40
2022-09-22T18:45:14.170Z,17.58
2022-09-22T18:47:43.764Z,16.15
2022-09-22T18:50:12.771Z,14.35
2022-09-22T18:52:45.980Z,16.13
2022-09-22T18:55:17.304Z,14.60
2022-09-22T18:57:47.455Z,20.00
2022-09-22T19:00:16.416Z,18.10
2022-09-22T19:02:45.071Z,14.23
2022-09-22T19:05:13.487Z,16.70
2022-09-22T19:07:46.917Z,16.65
2022-09-22T19:10:18.793Z,17.50
2022-09-22T19:12:47.027Z,21.35
2022-09-22T19:15:18.829Z,19.23
2022-09-22T19:17:48.777Z,17.30
2022-09-22T19:20:18.468Z,15.40
2022-09-22T19:22:49.331Z,23.02
2022-09-22T19:25:18.443Z,17.00
2022-09-22T19:27:46.863Z,16.88
2022-09-22T19:30:17.654Z,14.57
2022-09-22T19:32:47.929Z,17.70
2022-09-22T19:35:16.377Z,19.98
2022-09-22T19:37:44.624Z,20.77
2022-09-22T19:40:18.661Z,16.08
2022-09-22T19:42:47.870Z,21.45
2022-09-22T19:45:16.304Z,17.05
2022-09-22T19:47:44.924Z,17.58
2022-09-22T19:50:13.607Z,19.23
2022-09-22T19:52:42.023Z,24.27
2022-09-22T19:55:11.588Z,18.30
2022-09-22T19:57:42.401Z,21.80
2022-09-22T20:00:17.186Z,19.23
2022-09-22T20:02:46.042Z,21.38
2022-09-22T20:05:20.813Z,18.55
2022-09-22T20:07:49.168Z,19.48
2022-09-22T20:10:18.998Z,16.47
2022-09-22T20:12:48.634Z,18.25
2022-09-22T20:15:17.132Z,18.95
2022-09-22T20:17:46.700Z,17.40
2022-09-22T20:20:16.903Z,21.38
2022-09-22T20:22:47.226Z,20.73
2022-09-22T20:25:23.073Z,22.33
2022-09-22T20:27:53.019Z,16.83
2022-09-22T20:30:21.894Z,21.20
2022-09-22T20:32:50.408Z,22.17
2022-09-22T20:35:21.900Z,20.33
2022-09-22T20:37:51.748Z,21.27
2022-09-22T20:40:23.123Z,26.07
2022-09-22T20:42:55.241Z,25.07
2022-09-22T20:45:24.506Z,31.53
2022-09-22T20:47:52.945Z,27.27
2022-09-22T20:50:22.147Z,27.30
2022-09-22T20:52:50.588Z,29.83
2022-09-22T20:55:18.984Z,28.77
2022-09-22T20:57:47.238Z,31.13
2022-09-22T21:00:16.948Z,31.97
2022-09-22T21:02:46.186Z,26.20
2022-09-22T21:05:14.462Z,31.40
2022-09-22T21:07:43.143Z,29.30
2022-09-22T21:10:29.183Z,28.50
2022-09-22T21:13:00.483Z,28.47
2022-09-22T21:15:31.615Z,34.93
2022-09-22T21:18:00.293Z,35.10
2022-09-22T21:20:28.914Z,31.20
2022-09-22T21:22:57.034Z,33.23
2022-09-22T21:25:26.110Z,34.50
2022-09-22T21:27:54.338Z,41.27
2022-09-22T21:30:22.843Z,32.53
2022-09-22T21:32:52.218Z,33.60
2022-09-22T21:35:20.416Z,31.17
2022-09-22T21:37:48.842Z,33.80
2022-09-22T21:40:18.147Z,34.67
2022-09-22T21:42:47.085Z,31.37
2022-09-22T21:45:15.464Z,32.07
2022-09-22T21:47:44.528Z,35.40
2022-09-22T21:50:14.099Z,36.43
2022-09-22T21:52:44.849Z,39.80
2022-09-22T21:55:13.229Z,39.47
2022-09-22T21:57:41.801Z,43.47
2022-09-22T22:00:10.927Z,36.23
2022-09-22T22:02:52.964Z,40.60
2022-09-22T22:05:22.519Z,37.77
2022-09-22T22:07:50.927Z,36.57
2022-09-22T22:10:19.286Z,38.17
2022-09-22T22:12:47.654Z,37.77
2022-09-22T22:15:16.184Z,33.67
2022-09-22T22:17:44.530Z,44.07
2022-09-22T22:20:12.944Z,36.17
2022-09-22T22:22:42.420Z,43.37
2022-09-22T22:25:17.197Z,48.23
2022-09-22T22:27:46.603Z,43.93
2022-09-22T22:30:14.918Z,46.20
2022-09-22T22:32:43.365Z,43.17
2022-09-22T22:35:12.366Z,48.17
2022-09-22T22:37:45.928Z,43.17
2022-09-22T22:40:14.599Z,49.00
2022-09-22T22:42:42.989Z,45.53
2022-09-22T22:45:12.052Z,44.97
2022-09-22T22:47:40.279Z,45.13
2022-09-22T22:50:09.852Z,47.27
2022-09-22T22:52:42.088Z,43.90
2022-09-22T22:55:11.789Z,49.97
2022-09-22T22:57:40.179Z,46.87
2022-09-22T23:00:09.695Z,43.40
2022-09-22T23:02:38.640Z,44.80
2022-09-22T23:05:07.679Z,48.63
2022-09-22T23:07:36.575Z,46.33
2022-09-22T23:10:07.209Z,45.33
2022-09-22T23:12:40.096Z,51.23
2022-09-22T23:15:10.832Z,48.67
2022-09-22T23:17:39.937Z,48.97
2022-09-22T23:20:08.999Z,45.83
2022-09-22T23:22:37.171Z,51.50
2022-09-22T23:25:05.889Z,54.23
2022-09-22T23:27:34.283Z,53.97
2022-09-22T23:30:03.810Z,50.13
2022-09-22T23:32:32.141Z,50.97
2022-09-22T23:35:00.445Z,48.27
2022-09-22T23:37:28.766Z,46.87
2022-09-22T23:39:57.200Z,53.30
2022-09-22T23:42:25.481Z,49.47
2022-09-22T23:44:53.856Z,52.50
2022-09-22T23:47:23.636Z,55.80
2022-09-22T23:49:51.797Z,51.63
2022-09-22T23:52:22.251Z,55.37
2022-09-22T23:54:50.428Z,53.70
2022-09-22T23:57:19.099Z,55.63
2022-09-22T23:59:47.356Z,54.40
